sensor_id;sensor_type;location;lat;lon;timestamp;P1;durP1;ratioP1;P2;durP2;ratioP2
13408;SDS011;6775;49.574;11.170;2022-10-16T00:01:34;2.63;;;1.00;;
13408;SDS011;6775;49.574;11.170;2022-10-16T00:04:02;1.10;;;1.00;;
13408;SDS011;6775;49.574;11.170;2022-10-16T00:06:30;4.90;;;1.67;;
13408;SDS011;6775;49.574;11.170;2022-10-16T00:09:00;1.17;;;1.07;;
13408;SDS011;6775;49.574;11.170;2022-10-16T00:11:30;1.40;;;1.20;;
13408;SDS011;6775;49.574;11.170;2022-10-16T00:14:01;2.57;;;1.07;;
13408;SDS011;6775;49.574;11.170;2022-10-16T00:16:30;1.20;;;1.10;;
13408;SDS011;6775;49.574;11.170;2022-10-16T00:18:58;2.03;;;1.20;;
13408;SDS011;6775;49.574;11.170;2022-10-16T00:21:27;1.97;;;1.17;;
13408;SDS011;6775;49.574;11.170;2022-10-16T00:23:58;1.33;;;1.10;;
13408;SDS011;6775;49.574;11.170;2022-10-16T00:26:28;1.33;;;1.10;;
13408;SDS011;6775;49.574;11.170;2022-10-16T00:28:58;1.87;;;1.00;;
13408;SDS011;6775;49.574;11.170;2022-10-16T00:31:26;1.37;;;1.20;;
13408;SDS011;6775;49.574;11.170;2022-10-16T00:33:54;1.80;;;0.97;;
13408;SDS011;6775;49.574;11.170;2022-10-16T00:36:24;1.20;;;0.93;;
13408;SDS011;6775;49.574;11.170;2022-10-16T00:38:53;1.20;;;1.10;;
13408;SDS011;6775;49.574;11.170;2022-10-16T00:41:23;0.80;;;0.80;;
13408;SDS011;6775;49.574;11.170;2022-10-16T00:43:54;0.80;;;0.80;;
13408;SDS011;6775;49.574;11.170;2022-10-16T00:46:24;1.93;;;1.10;;
13408;SDS011;6775;49.574;11.170;2022-10-16T00:48:55;1.13;;;1.03;;
13408;SDS011;6775;49.574;11.170;2022-10-16T00:51:28;1.00;;;0.90;;
13408;SDS011;6775;49.574;11.170;2022-10-16T00:53:59;1.10;;;0.80;;
13408;SDS011;6775;49.574;11.170;2022-10-16T00:56:28;0.80;;;0.80;;
13408;SDS011;6775;49.574;11.170;2022-10-16T00:58:57;0.90;;;0.90;;
13408;SDS011;6775;49.574;11.170;2022-10-16T01:01:28;0.80;;;0.80;;
13408;SDS011;6775;49.574;11.170;2022-10-16T01:03:56;1.00;;;0.90;;
13408;SDS011;6775;49.574;11.170;2022-10-16T01:06:25;1.63;;;1.27;;
13408;SDS011;6775;49.574;11.170;2022-10-16T01:09:07;1.63;;;1.40;;
13408;SDS011;6775;49.574;11.170;2022-10-16T01:11:43;2.07;;;1.07;;
13408;SDS011;6775;49.574;11.170;2022-10-16T01:14:21;1.20;;;1.10;;
13408;SDS011;6775;49.574;11.170;2022-10-16T01:16:55;1.40;;;1.30;;
13408;SDS011;6775;49.574;11.170;2022-10-16T01:19:38;1.17;;;1.07;;
13408;SDS011;6775;49.574;11.170;2022-10-16T01:22:25;1.67;;;1.20;;
13408;SDS011;6775;49.574;11.170;2022-10-16T01:25:00;1.00;;;1.00;;
13408;SDS011;6775;49.574;11.170;2022-10-16T01:27:37;1.30;;;1.20;;
13408;SDS011;6775;49.574;11.170;2022-10-16T01:30:09;1.53;;;1.27;;
13408;SDS011;6775;49.574;11.170;2022-10-16T01:32:41;2.43;;;1.30;;
13408;SDS011;6775;49.574;11.170;2022-10-16T01:35:14;1.17;;;1.00;;
13408;SDS011;6775;49.574;11.170;2022-10-16T01:37:50;1.90;;;1.10;;
13408;SDS011;6775;49.574;11.170;2022-10-16T01:40:23;2.00;;;1.40;;
13408;SDS011;6775;49.574;11.170;2022-10-16T01:42:55;2.07;;;1.50;;
13408;SDS011;6775;49.574;11.170;2022-10-16T01:45:26;2.00;;;1.30;;
13408;SDS011;6775;49.574;11.170;2022-10-16T01:47:56;2.27;;;1.37;;
13408;SDS011;6775;49.574;11.170;2022-10-16T01:50:30;2.30;;;1.13;;
13408;SDS011;6775;49.574;11.170;2022-10-16T01:53:00;1.47;;;1.20;;
13408;SDS011;6775;49.574;11.170;2022-10-16T01:55:32;2.43;;;1.30;;
13408;SDS011;6775;49.574;11.170;2022-10-16T01:58:05;3.47;;;1.13;;
13408;SDS011;6775;49.574;11.170;2022-10-16T02:00:36;1.60;;;1.30;;
13408;SDS011;6775;49.574;11.170;2022-10-16T02:03:05;1.63;;;1.23;;
13408;SDS011;6775;49.574;11.170;2022-10-16T02:05:37;2.03;;;1.27;;
13408;SDS011;6775;49.574;11.170;2022-10-16T02:08:08;3.20;;;1.23;;
13408;SDS011;6775;49.574;11.170;2022-10-16T02:10:36;2.13;;;1.30;;
13408;SDS011;6775;49.574;11.170;2022-10-16T02:13:07;2.27;;;1.23;;
13408;SDS011;6775;49.574;11.170;2022-10-16T02:15:38;2.20;;;1.37;;
13408;SDS011;6775;49.574;11.170;2022-10-16T02:18:07;2.37;;;1.33;;
13408;SDS011;6775;49.574;11.170;2022-10-16T02:20:38;4.33;;;1.30;;
13408;SDS011;6775;49.574;11.170;2022-10-16T02:23:14;1.30;;;1.13;;
13408;SDS011;6775;49.574;11.170;2022-10-16T02:25:51;4.67;;;1.27;;
13408;SDS011;6775;49.574;11.170;2022-10-16T02:28:23;2.23;;;1.20;;
13408;SDS011;6775;49.574;11.170;2022-10-16T02:30:55;1.50;;;1.17;;
13408;SDS011;6775;49.574;11.170;2022-10-16T02:33:25;4.13;;;1.53;;
13408;SDS011;6775;49.574;11.170;2022-10-16T02:35:55;2.73;;;1.10;;
13408;SDS011;6775;49.574;11.170;2022-10-16T02:38:24;1.73;;;1.30;;
13408;SDS011;6775;49.574;11.170;2022-10-16T02:40:53;1.40;;;1.30;;
13408;SDS011;6775;49.574;11.170;2022-10-16T02:43:24;4.47;;;1.20;;
13408;SDS011;6775;49.574;11.170;2022-10-16T02:45:52;1.40;;;1.30;;
13408;SDS011;6775;49.574;11.170;2022-10-16T02:48:20;2.03;;;1.50;;
13408;SDS011;6775;49.574;11.170;2022-10-16T02:50:48;1.80;;;1.13;;
13408;SDS011;6775;49.574;11.170;2022-10-16T02:53:16;2.83;;;1.27;;
13408;SDS011;6775;49.574;11.170;2022-10-16T02:55:43;3.57;;;1.20;;
13408;SDS011;6775;49.574;11.170;2022-10-16T02:58:11;2.27;;;1.30;;
13408;SDS011;6775;49.574;11.170;2022-10-16T03:00:41;1.90;;;1.33;;
13408;SDS011;6775;49.574;11.170;2022-10-16T03:03:09;1.30;;;1.20;;
13408;SDS011;6775;49.574;11.170;2022-10-16T03:05:37;3.13;;;1.30;;
13408;SDS011;6775;49.574;11.170;2022-10-16T03:08:05;1.73;;;1.20;;
13408;SDS011;6775;49.574;11.170;2022-10-16T03:10:32;2.60;;;1.33;;
13408;SDS011;6775;49.574;11.170;2022-10-16T03:13:00;3.33;;;1.30;;
13408;SDS011;6775;49.574;11.170;2022-10-16T03:15:28;3.80;;;1.10;;
13408;SDS011;6775;49.574;11.170;2022-10-16T03:17:58;2.77;;;1.20;;
13408;SDS011;6775;49.574;11.170;2022-10-16T03:20:26;1.20;;;1.10;;
13408;SDS011;6775;49.574;11.170;2022-10-16T03:22:54;1.17;;;1.07;;
13408;SDS011;6775;49.574;11.170;2022-10-16T03:25:22;1.73;;;0.93;;
13408;SDS011;6775;49.574;11.170;2022-10-16T03:27:50;3.10;;;1.20;;
13408;SDS011;6775;49.574;11.170;2022-10-16T03:30:18;1.10;;;1.03;;
13408;SDS011;6775;49.574;11.170;2022-10-16T03:32:46;1.73;;;1.03;;
13408;SDS011;6775;49.574;11.170;2022-10-16T03:35:16;1.13;;;1.03;;
13408;SDS011;6775;49.574;11.170;2022-10-16T03:37:44;1.53;;;1.00;;
13408;SDS011;6775;49.574;11.170;2022-10-16T03:40:11;1.57;;;1.10;;
13408;SDS011;6775;49.574;11.170;2022-10-16T03:42:39;1.53;;;1.17;;
13408;SDS011;6775;49.574;11.170;2022-10-16T03:45:07;2.20;;;1.10;;
13408;SDS011;6775;49.574;11.170;2022-10-16T03:47:36;2.77;;;1.10;;
13408;SDS011;6775;49.574;11.170;2022-10-16T03:50:04;1.23;;;1.13;;
13408;SDS011;6775;49.574;11.170;2022-10-16T03:52:35;3.10;;;1.10;;
13408;SDS011;6775;49.574;11.170;2022-10-16T03:55:03;1.47;;;1.00;;
13408;SDS011;6775;49.574;11.170;2022-10-16T03:57:31;1.30;;;0.80;;
13408;SDS011;6775;49.574;11.170;2022-10-16T03:59:59;1.20;;;1.10;;
13408;SDS011;6775;49.574;11.170;2022-10-16T04:02:27;0.93;;;0.90;;
13408;SDS011;6775;49.574;11.170;2022-10-16T04:04:55;2.30;;;1.17;;
13408;SDS011;6775;49.574;11.170;2022-10-16T04:07:23;1.53;;;1.00;;
13408;SDS011;6775;49.574;11.170;2022-10-16T04:09:53;1.10;;;1.00;;
13408;SDS011;6775;49.574;11.170;2022-10-16T04:12:20;2.30;;;1.17;;
13408;SDS011;6775;49.574;11.170;2022-10-16T04:14:48;1.87;;;1.20;;
13408;SDS011;6775;49.574;11.170;2022-10-16T04:17:16;3.23;;;1.80;;
13408;SDS011;6775;49.574;11.170;2022-10-16T04:19:44;3.50;;;1.40;;
13408;SDS011;6775;49.574;11.170;2022-10-16T04:22:12;2.63;;;1.30;;
13408;SDS011;6775;49.574;11.170;2022-10-16T04:24:40;2.03;;;1.10;;
13408;SDS011;6775;49.574;11.170;2022-10-16T04:27:09;3.10;;;1.47;;
13408;SDS011;6775;49.574;11.170;2022-10-16T04:29:37;1.40;;;1.30;;
13408;SDS011;6775;49.574;11.170;2022-10-16T04:32:06;1.60;;;1.00;;
13408;SDS011;6775;49.574;11.170;2022-10-16T04:34:35;3.53;;;1.10;;
13408;SDS011;6775;49.574;11.170;2022-10-16T04:37:04;1.60;;;1.40;;
13408;SDS011;6775;49.574;11.170;2022-10-16T04:39:32;1.40;;;1.30;;
13408;SDS011;6775;49.574;11.170;2022-10-16T04:42:00;1.57;;;1.30;;
13408;SDS011;6775;49.574;11.170;2022-10-16T04:44:29;8.13;;;1.97;;
13408;SDS011;6775;49.574;11.170;2022-10-16T04:46:57;2.70;;;1.60;;
13408;SDS011;6775;49.574;11.170;2022-10-16T04:49:25;1.57;;;1.20;;
13408;SDS011;6775;49.574;11.170;2022-10-16T04:51:53;2.73;;;1.10;;
13408;SDS011;6775;49.574;11.170;2022-10-16T04:54:21;3.40;;;1.37;;
13408;SDS011;6775;49.574;11.170;2022-10-16T04:56:49;1.60;;;1.50;;
13408;SDS011;6775;49.574;11.170;2022-10-16T04:59:18;1.33;;;1.17;;
13408;SDS011;6775;49.574;11.170;2022-10-16T05:01:47;2.53;;;1.30;;
13408;SDS011;6775;49.574;11.170;2022-10-16T05:04:15;1.50;;;1.40;;
13408;SDS011;6775;49.574;11.170;2022-10-16T05:06:43;2.50;;;1.20;;
13408;SDS011;6775;49.574;11.170;2022-10-16T05:09:11;1.27;;;1.10;;
13408;SDS011;6775;49.574;11.170;2022-10-16T05:11:39;1.33;;;1.23;;
13408;SDS011;6775;49.574;11.170;2022-10-16T05:14:07;2.07;;;1.20;;
13408;SDS011;6775;49.574;11.170;2022-10-16T05:16:36;1.63;;;1.20;;
13408;SDS011;6775;49.574;11.170;2022-10-16T05:19:05;1.30;;;1.20;;
13408;SDS011;6775;49.574;11.170;2022-10-16T05:21:52;2.10;;;1.10;;
13408;SDS011;6775;49.574;11.170;2022-10-16T05:24:20;2.13;;;1.30;;
13408;SDS011;6775;49.574;11.170;2022-10-16T05:26:49;1.00;;;0.90;;
13408;SDS011;6775;49.574;11.170;2022-10-16T05:29:17;1.30;;;1.00;;
13408;SDS011;6775;49.574;11.170;2022-10-16T05:31:45;2.20;;;1.20;;
13408;SDS011;6775;49.574;11.170;2022-10-16T05:34:14;1.67;;;0.97;;
13408;SDS011;6775;49.574;11.170;2022-10-16T05:36:42;1.97;;;1.23;;
13408;SDS011;6775;49.574;11.170;2022-10-16T05:39:11;1.20;;;1.03;;
13408;SDS011;6775;49.574;11.170;2022-10-16T05:41:40;1.10;;;1.03;;
13408;SDS011;6775;49.574;11.170;2022-10-16T05:44:08;1.47;;;1.00;;
13408;SDS011;6775;49.574;11.170;2022-10-16T05:46:36;2.10;;;1.00;;
13408;SDS011;6775;49.574;11.170;2022-10-16T05:49:04;1.67;;;1.20;;
13408;SDS011;6775;49.574;11.170;2022-10-16T05:51:33;1.20;;;1.00;;
13408;SDS011;6775;49.574;11.170;2022-10-16T05:54:01;1.70;;;1.20;;
13408;SDS011;6775;49.574;11.170;2022-10-16T05:56:29;2.40;;;1.10;;
13408;SDS011;6775;49.574;11.170;2022-10-16T05:58:57;1.10;;;1.00;;
13408;SDS011;6775;49.574;11.170;2022-10-16T06:01:25;1.90;;;1.33;;
13408;SDS011;6775;49.574;11.170;2022-10-16T06:03:53;2.67;;;1.30;;
13408;SDS011;6775;49.574;11.170;2022-10-16T06:06:21;1.83;;;1.07;;
13408;SDS011;6775;49.574;11.170;2022-10-16T06:08:53;1.30;;;1.20;;
13408;SDS011;6775;49.574;11.170;2022-10-16T06:11:22;1.37;;;1.27;;
13408;SDS011;6775;49.574;11.170;2022-10-16T06:13:52;1.43;;;1.33;;
13408;SDS011;6775;49.574;11.170;2022-10-16T06:16:23;1.33;;;1.07;;
13408;SDS011;6775;49.574;11.170;2022-10-16T06:18:52;2.67;;;1.23;;
13408;SDS011;6775;49.574;11.170;2022-10-16T06:21:22;1.63;;;1.20;;
13408;SDS011;6775;49.574;11.170;2022-10-16T06:23:53;1.93;;;1.30;;
13408;SDS011;6775;49.574;11.170;2022-10-16T06:26:22;3.37;;;1.60;;
13408;SDS011;6775;49.574;11.170;2022-10-16T06:28:51;2.93;;;1.50;;
13408;SDS011;6775;49.574;11.170;2022-10-16T06:31:21;2.27;;;1.60;;
13408;SDS011;6775;49.574;11.170;2022-10-16T06:33:53;1.97;;;1.50;;
13408;SDS011;6775;49.574;11.170;2022-10-16T06:36:22;1.33;;;1.23;;
13408;SDS011;6775;49.574;11.170;2022-10-16T06:38:51;1.53;;;0.93;;
13408;SDS011;6775;49.574;11.170;2022-10-16T06:41:21;1.20;;;1.10;;
13408;SDS011;6775;49.574;11.170;2022-10-16T06:43:50;1.63;;;0.97;;
13408;SDS011;6775;49.574;11.170;2022-10-16T06:46:19;1.53;;;1.03;;
13408;SDS011;6775;49.574;11.170;2022-10-16T06:48:49;1.27;;;1.10;;
13408;SDS011;6775;49.574;11.170;2022-10-16T06:51:18;1.50;;;1.40;;
13408;SDS011;6775;49.574;11.170;2022-10-16T06:53:47;2.13;;;1.00;;
13408;SDS011;6775;49.574;11.170;2022-10-16T06:56:33;2.10;;;1.40;;
13408;SDS011;6775;49.574;11.170;2022-10-16T06:59:01;1.33;;;1.23;;
13408;SDS011;6775;49.574;11.170;2022-10-16T07:01:29;1.93;;;1.27;;
13408;SDS011;6775;49.574;11.170;2022-10-16T07:03:58;2.07;;;1.33;;
13408;SDS011;6775;49.574;11.170;2022-10-16T07:06:27;1.43;;;1.00;;
13408;SDS011;6775;49.574;11.170;2022-10-16T07:08:58;1.30;;;1.10;;
13408;SDS011;6775;49.574;11.170;2022-10-16T07:11:29;1.10;;;1.00;;
13408;SDS011;6775;49.574;11.170;2022-10-16T07:13:59;0.87;;;0.87;;
13408;SDS011;6775;49.574;11.170;2022-10-16T07:16:27;1.63;;;1.10;;
13408;SDS011;6775;49.574;11.170;2022-10-16T07:18:57;1.37;;;1.27;;
13408;SDS011;6775;49.574;11.170;2022-10-16T07:21:27;1.30;;;1.13;;
13408;SDS011;6775;49.574;11.170;2022-10-16T07:23:56;2.97;;;1.43;;
13408;SDS011;6775;49.574;11.170;2022-10-16T07:26:27;1.30;;;1.20;;
13408;SDS011;6775;49.574;11.170;2022-10-16T07:28:57;1.70;;;1.60;;
13408;SDS011;6775;49.574;11.170;2022-10-16T07:31:27;1.30;;;1.20;;
13408;SDS011;6775;49.574;11.170;2022-10-16T07:33:55;1.30;;;1.20;;
13408;SDS011;6775;49.574;11.170;2022-10-16T07:36:25;1.13;;;1.03;;
13408;SDS011;6775;49.574;11.170;2022-10-16T07:38:54;1.73;;;1.10;;
13408;SDS011;6775;49.574;11.170;2022-10-16T07:41:25;1.33;;;1.20;;
13408;SDS011;6775;49.574;11.170;2022-10-16T07:43:54;1.03;;;0.93;;
13408;SDS011;6775;49.574;11.170;2022-10-16T07:46:24;1.30;;;1.20;;
13408;SDS011;6775;49.574;11.170;2022-10-16T07:48:52;1.70;;;1.60;;
13408;SDS011;6775;49.574;11.170;2022-10-16T07:51:22;2.23;;;1.40;;
13408;SDS011;6775;49.574;11.170;2022-10-16T07:53:51;1.30;;;1.20;;
13408;SDS011;6775;49.574;11.170;2022-10-16T07:56:20;3.67;;;1.20;;
13408;SDS011;6775;49.574;11.170;2022-10-16T07:58:49;2.20;;;1.47;;
13408;SDS011;6775;49.574;11.170;2022-10-16T08:01:18;1.80;;;1.20;;
13408;SDS011;6775;49.574;11.170;2022-10-16T08:03:48;1.27;;;1.17;;
13408;SDS011;6775;49.574;11.170;2022-10-16T08:06:17;1.03;;;0.93;;
13408;SDS011;6775;49.574;11.170;2022-10-16T08:08:53;1.20;;;1.10;;
13408;SDS011;6775;49.574;11.170;2022-10-16T08:11:21;1.00;;;1.00;;
13408;SDS011;6775;49.574;11.170;2022-10-16T08:13:50;1.77;;;1.10;;
13408;SDS011;6775;49.574;11.170;2022-10-16T08:16:18;1.13;;;1.03;;
13408;SDS011;6775;49.574;11.170;2022-10-16T08:18:46;0.87;;;0.80;;
13408;SDS011;6775;49.574;11.170;2022-10-16T08:21:18;1.40;;;1.30;;
13408;SDS011;6775;49.574;11.170;2022-10-16T08:23:47;2.30;;;1.20;;
13408;SDS011;6775;49.574;11.170;2022-10-16T08:26:23;1.40;;;1.17;;
13408;SDS011;6775;49.574;11.170;2022-10-16T08:28:52;1.30;;;1.20;;
13408;SDS011;6775;49.574;11.170;2022-10-16T08:31:20;1.10;;;1.00;;
13408;SDS011;6775;49.574;11.170;2022-10-16T08:33:50;1.30;;;1.03;;
13408;SDS011;6775;49.574;11.170;2022-10-16T08:36:18;1.00;;;0.93;;
13408;SDS011;6775;49.574;11.170;2022-10-16T08:38:47;1.27;;;1.17;;
13408;SDS011;6775;49.574;11.170;2022-10-16T08:41:21;1.20;;;1.10;;
13408;SDS011;6775;49.574;11.170;2022-10-16T08:44:03;2.03;;;1.20;;
13408;SDS011;6775;49.574;11.170;2022-10-16T08:46:53;1.10;;;1.10;;
13408;SDS011;6775;49.574;11.170;2022-10-16T08:49:31;1.30;;;1.20;;
13408;SDS011;6775;49.574;11.170;2022-10-16T08:51:59;2.10;;;1.00;;
13408;SDS011;6775;49.574;11.170;2022-10-16T08:54:28;1.73;;;1.20;;
13408;SDS011;6775;49.574;11.170;2022-10-16T08:57:07;2.07;;;1.00;;
13408;SDS011;6775;49.574;11.170;2022-10-16T08:59:38;1.77;;;1.20;;
13408;SDS011;6775;49.574;11.170;2022-10-16T09:02:13;1.20;;;1.10;;
13408;SDS011;6775;49.574;11.170;2022-10-16T09:04:57;1.90;;;1.30;;
13408;SDS011;6775;49.574;11.170;2022-10-16T09:07:35;1.20;;;1.10;;
13408;SDS011;6775;49.574;11.170;2022-10-16T09:10:15;2.37;;;1.10;;
13408;SDS011;6775;49.574;11.170;2022-10-16T09:12:52;1.77;;;0.97;;
13408;SDS011;6775;49.574;11.170;2022-10-16T09:15:27;2.00;;;1.13;;
13408;SDS011;6775;49.574;11.170;2022-10-16T09:18:00;1.10;;;0.80;;
13408;SDS011;6775;49.574;11.170;2022-10-16T09:20:37;1.73;;;1.23;;
13408;SDS011;6775;49.574;11.170;2022-10-16T09:23:13;1.77;;;1.27;;
13408;SDS011;6775;49.574;11.170;2022-10-16T09:25:43;1.30;;;1.00;;
13408;SDS011;6775;49.574;11.170;2022-10-16T09:28:13;1.40;;;1.00;;
13408;SDS011;6775;49.574;11.170;2022-10-16T09:30:42;1.33;;;1.23;;
13408;SDS011;6775;49.574;11.170;2022-10-16T09:33:11;2.10;;;1.00;;
13408;SDS011;6775;49.574;11.170;2022-10-16T09:35:42;1.13;;;1.03;;
13408;SDS011;6775;49.574;11.170;2022-10-16T09:38:23;1.50;;;1.10;;
13408;SDS011;6775;49.574;11.170;2022-10-16T09:40:54;1.00;;;0.90;;
13408;SDS011;6775;49.574;11.170;2022-10-16T09:43:29;1.50;;;1.00;;
13408;SDS011;6775;49.574;11.170;2022-10-16T09:46:03;1.90;;;1.13;;
13408;SDS011;6775;49.574;11.170;2022-10-16T09:48:33;1.10;;;1.00;;
13408;SDS011;6775;49.574;11.170;2022-10-16T09:51:06;1.80;;;1.10;;
13408;SDS011;6775;49.574;11.170;2022-10-16T09:53:46;0.87;;;0.87;;
13408;SDS011;6775;49.574;11.170;2022-10-16T09:56:21;2.03;;;1.10;;
13408;SDS011;6775;49.574;11.170;2022-10-16T09:58:50;1.67;;;1.20;;
13408;SDS011;6775;49.574;11.170;2022-10-16T10:01:19;1.50;;;1.10;;
13408;SDS011;6775;49.574;11.170;2022-10-16T10:03:49;1.53;;;1.10;;
13408;SDS011;6775;49.574;11.170;2022-10-16T10:06:22;1.27;;;1.13;;
13408;SDS011;6775;49.574;11.170;2022-10-16T10:08:56;1.10;;;1.00;;
13408;SDS011;6775;49.574;11.170;2022-10-16T10:11:42;1.50;;;0.90;;
13408;SDS011;6775;49.574;11.170;2022-10-16T10:14:18;1.17;;;1.07;;
13408;SDS011;6775;49.574;11.170;2022-10-16T10:16:53;1.10;;;1.00;;
13408;SDS011;6775;49.574;11.170;2022-10-16T10:19:37;0.97;;;0.90;;
13408;SDS011;6775;49.574;11.170;2022-10-16T10:22:15;1.70;;;0.80;;
13408;SDS011;6775;49.574;11.170;2022-10-16T10:24:46;1.40;;;0.97;;
13408;SDS011;6775;49.574;11.170;2022-10-16T10:27:23;2.47;;;1.13;;
13408;SDS011;6775;49.574;11.170;2022-10-16T10:29:59;0.93;;;0.93;;
13408;SDS011;6775;49.574;11.170;2022-10-16T10:32:35;1.40;;;0.93;;
13408;SDS011;6775;49.574;11.170;2022-10-16T10:35:13;0.90;;;0.90;;
13408;SDS011;6775;49.574;11.170;2022-10-16T10:37:49;0.80;;;0.80;;
13408;SDS011;6775;49.574;11.170;2022-10-16T10:40:36;1.80;;;1.10;;
13408;SDS011;6775;49.574;11.170;2022-10-16T10:43:15;1.20;;;1.10;;
13408;SDS011;6775;49.574;11.170;2022-10-16T10:45:54;1.97;;;1.30;;
13408;SDS011;6775;49.574;11.170;2022-10-16T10:48:33;1.10;;;1.00;;
13408;SDS011;6775;49.574;11.170;2022-10-16T10:51:16;1.83;;;1.20;;
13408;SDS011;6775;49.574;11.170;2022-10-16T10:53:55;0.97;;;0.97;;
13408;SDS011;6775;49.574;11.170;2022-10-16T10:56:42;0.80;;;0.80;;
13408;SDS011;6775;49.574;11.170;2022-10-16T11:02:05;1.73;;;1.00;;
13408;SDS011;6775;49.574;11.170;2022-10-16T11:04:49;1.37;;;1.10;;
13408;SDS011;6775;49.574;11.170;2022-10-16T11:07:37;0.80;;;0.80;;
13408;SDS011;6775;49.574;11.170;2022-10-16T11:10:14;0.83;;;0.83;;
13408;SDS011;6775;49.574;11.170;2022-10-16T11:12:46;0.90;;;0.77;;
13408;SDS011;6775;49.574;11.170;2022-10-16T11:15:18;1.50;;;1.10;;
13408;SDS011;6775;49.574;11.170;2022-10-16T11:17:49;1.10;;;1.00;;
13408;SDS011;6775;49.574;11.170;2022-10-16T11:20:22;0.90;;;0.90;;
13408;SDS011;6775;49.574;11.170;2022-10-16T11:22:53;1.60;;;1.13;;
13408;SDS011;6775;49.574;11.170;2022-10-16T11:25:26;1.10;;;1.00;;
13408;SDS011;6775;49.574;11.170;2022-10-16T11:27:56;1.57;;;1.20;;
13408;SDS011;6775;49.574;11.170;2022-10-16T11:30:29;1.13;;;1.03;;
13408;SDS011;6775;49.574;11.170;2022-10-16T11:33:04;3.03;;;1.20;;
13408;SDS011;6775;49.574;11.170;2022-10-16T11:35:47;1.87;;;1.40;;
13408;SDS011;6775;49.574;11.170;2022-10-16T11:38:20;2.10;;;1.10;;
13408;SDS011;6775;49.574;11.170;2022-10-16T11:40:56;1.80;;;1.30;;
13408;SDS011;6775;49.574;11.170;2022-10-16T11:43:28;1.07;;;0.97;;
13408;SDS011;6775;49.574;11.170;2022-10-16T11:46:02;1.10;;;1.00;;
13408;SDS011;6775;49.574;11.170;2022-10-16T11:48:36;0.80;;;0.80;;
13408;SDS011;6775;49.574;11.170;2022-10-16T11:51:11;1.00;;;0.87;;
13408;SDS011;6775;49.574;11.170;2022-10-16T11:53:45;0.90;;;0.90;;
13408;SDS011;6775;49.574;11.170;2022-10-16T11:56:20;1.00;;;0.90;;
13408;SDS011;6775;49.574;11.170;2022-10-16T11:58:51;0.80;;;0.80;;
13408;SDS011;6775;49.574;11.170;2022-10-16T12:01:26;0.73;;;0.73;;
13408;SDS011;6775;49.574;11.170;2022-10-16T12:04:04;0.83;;;0.83;;
13408;SDS011;6775;49.574;11.170;2022-10-16T12:06:42;1.07;;;1.03;;
13408;SDS011;6775;49.574;11.170;2022-10-16T12:09:15;1.73;;;0.90;;
13408;SDS011;6775;49.574;11.170;2022-10-16T12:11:50;1.03;;;0.90;;
13408;SDS011;6775;49.574;11.170;2022-10-16T12:14:19;0.80;;;0.80;;
13408;SDS011;6775;49.574;11.170;2022-10-16T12:17:22;0.80;;;0.80;;
13408;SDS011;6775;49.574;11.170;2022-10-16T12:19:59;1.27;;;0.80;;
13408;SDS011;6775;49.574;11.170;2022-10-16T12:22:28;2.63;;;0.83;;
13408;SDS011;6775;49.574;11.170;2022-10-16T12:24:58;1.23;;;1.10;;
13408;SDS011;6775;49.574;11.170;2022-10-16T12:27:29;1.00;;;0.90;;
13408;SDS011;6775;49.574;11.170;2022-10-16T12:30:00;0.63;;;0.63;;
13408;SDS011;6775;49.574;11.170;2022-10-16T12:32:32;1.52;;;0.65;;
13408;SDS011;6775;49.574;11.170;2022-10-16T12:35:19;0.77;;;0.70;;
13408;SDS011;6775;49.574;11.170;2022-10-16T12:37:49;0.63;;;0.63;;
13408;SDS011;6775;49.574;11.170;2022-10-16T12:40:23;1.98;;;1.02;;
13408;SDS011;6775;49.574;11.170;2022-10-16T12:42:56;0.80;;;0.80;;
13408;SDS011;6775;49.574;11.170;2022-10-16T12:45:29;0.68;;;0.68;;
13408;SDS011;6775;49.574;11.170;2022-10-16T12:47:59;0.70;;;0.70;;
13408;SDS011;6775;49.574;11.170;2022-10-16T12:50:30;1.58;;;0.63;;
13408;SDS011;6775;49.574;11.170;2022-10-16T12:53:00;0.50;;;0.50;;
13408;SDS011;6775;49.574;11.170;2022-10-16T12:55:32;0.80;;;0.77;;
13408;SDS011;6775;49.574;11.170;2022-10-16T12:58:14;1.10;;;0.80;;
13408;SDS011;6775;49.574;11.170;2022-10-16T13:00:56;1.17;;;0.70;;
13408;SDS011;6775;49.574;11.170;2022-10-16T13:03:29;0.70;;;0.60;;
13408;SDS011;6775;49.574;11.170;2022-10-16T13:06:25;0.75;;;0.70;;
13408;SDS011;6775;49.574;11.170;2022-10-16T13:09:16;2.80;;;0.88;;
13408;SDS011;6775;49.574;11.170;2022-10-16T13:12:05;0.60;;;0.60;;
13408;SDS011;6775;49.574;11.170;2022-10-16T13:14:51;0.70;;;0.70;;
13408;SDS011;6775;49.574;11.170;2022-10-16T13:17:32;0.80;;;0.80;;
13408;SDS011;6775;49.574;11.170;2022-10-16T13:20:09;0.87;;;0.87;;
13408;SDS011;6775;49.574;11.170;2022-10-16T13:22:47;1.00;;;1.00;;
13408;SDS011;6775;49.574;11.170;2022-10-16T13:25:26;1.00;;;1.00;;
13408;SDS011;6775;49.574;11.170;2022-10-16T13:28:04;0.80;;;0.80;;
13408;SDS011;6775;49.574;11.170;2022-10-16T13:30:37;1.17;;;0.60;;
13408;SDS011;6775;49.574;11.170;2022-10-16T13:33:10;0.70;;;0.70;;
13408;SDS011;6775;49.574;11.170;2022-10-16T13:35:46;0.87;;;0.80;;
13408;SDS011;6775;49.574;11.170;2022-10-16T13:38:17;7.83;;;5.00;;
13408;SDS011;6775;49.574;11.170;2022-10-16T13:40:53;5.90;;;4.13;;
13408;SDS011;6775;49.574;11.170;2022-10-16T13:43:23;5.60;;;4.10;;
13408;SDS011;6775;49.574;11.170;2022-10-16T13:45:57;2.90;;;2.60;;
13408;SDS011;6775;49.574;11.170;2022-10-16T13:48:28;2.80;;;2.10;;
13408;SDS011;6775;49.574;11.170;2022-10-16T13:51:00;2.07;;;1.53;;
13408;SDS011;6775;49.574;11.170;2022-10-16T13:53:29;1.67;;;1.57;;
13408;SDS011;6775;49.574;11.170;2022-10-16T13:55:59;2.03;;;1.53;;
13408;SDS011;6775;49.574;11.170;2022-10-16T13:58:28;1.27;;;1.17;;
13408;SDS011;6775;49.574;11.170;2022-10-16T14:00:58;1.13;;;1.03;;
13408;SDS011;6775;49.574;11.170;2022-10-16T14:03:27;1.13;;;1.00;;
13408;SDS011;6775;49.574;11.170;2022-10-16T14:05:57;1.17;;;1.07;;
13408;SDS011;6775;49.574;11.170;2022-10-16T14:08:28;0.80;;;0.80;;
13408;SDS011;6775;49.574;11.170;2022-10-16T14:10:58;1.23;;;0.90;;
13408;SDS011;6775;49.574;11.170;2022-10-16T14:13:31;0.80;;;0.80;;
13408;SDS011;6775;49.574;11.170;2022-10-16T14:16:06;1.40;;;1.07;;
13408;SDS011;6775;49.574;11.170;2022-10-16T14:18:36;0.70;;;0.70;;
13408;SDS011;6775;49.574;11.170;2022-10-16T14:21:07;1.00;;;1.00;;
13408;SDS011;6775;49.574;11.170;2022-10-16T14:23:40;1.20;;;1.10;;
13408;SDS011;6775;49.574;11.170;2022-10-16T14:26:15;0.70;;;0.70;;
13408;SDS011;6775;49.574;11.170;2022-10-16T14:28:44;1.17;;;0.83;;
13408;SDS011;6775;49.574;11.170;2022-10-16T14:31:24;0.90;;;0.90;;
13408;SDS011;6775;49.574;11.170;2022-10-16T14:33:54;2.10;;;0.97;;
13408;SDS011;6775;49.574;11.170;2022-10-16T14:36:22;2.10;;;0.97;;
13408;SDS011;6775;49.574;11.170;2022-10-16T14:38:57;1.03;;;0.93;;
13408;SDS011;6775;49.574;11.170;2022-10-16T14:41:28;1.00;;;0.80;;
13408;SDS011;6775;49.574;11.170;2022-10-16T14:44:00;0.93;;;0.90;;
13408;SDS011;6775;49.574;11.170;2022-10-16T14:46:33;0.80;;;0.80;;
13408;SDS011;6775;49.574;11.170;2022-10-16T14:49:03;1.10;;;1.00;;
13408;SDS011;6775;49.574;11.170;2022-10-16T14:51:41;1.03;;;1.00;;
13408;SDS011;6775;49.574;11.170;2022-10-16T14:54:11;0.80;;;0.80;;
13408;SDS011;6775;49.574;11.170;2022-10-16T14:56:43;1.00;;;0.90;;
13408;SDS011;6775;49.574;11.170;2022-10-16T14:59:16;1.13;;;1.03;;
13408;SDS011;6775;49.574;11.170;2022-10-16T15:01:48;1.50;;;0.90;;
13408;SDS011;6775;49.574;11.170;2022-10-16T15:04:16;0.70;;;0.70;;
13408;SDS011;6775;49.574;11.170;2022-10-16T15:06:44;0.80;;;0.80;;
13408;SDS011;6775;49.574;11.170;2022-10-16T15:09:12;0.67;;;0.67;;
13408;SDS011;6775;49.574;11.170;2022-10-16T15:11:41;0.87;;;0.87;;
13408;SDS011;6775;49.574;11.170;2022-10-16T15:14:10;0.90;;;0.90;;
13408;SDS011;6775;49.574;11.170;2022-10-16T15:16:40;1.10;;;1.07;;
13408;SDS011;6775;49.574;11.170;2022-10-16T15:19:10;1.40;;;1.30;;